sensor_id;sensor_type;location;lat;lon;timestamp;temperature;humidity
1992;DHT22;997;48.448;8.924;2022-11-23T04:04:09;4.60;99.90
1992;DHT22;997;48.448;8.924;2022-11-23T04:06:34;4.60;99.90
1992;DHT22;997;48.448;8.924;2022-11-23T04:09:00;4.80;99.90
1992;DHT22;997;48.448;8.924;2022-11-23T04:11:26;4.80;99.90
1992;DHT22;997;48.448;8.924;2022-11-23T04:17:04;5.00;99.90
1992;DHT22;997;48.448;8.924;2022-11-23T04:19:29;5.10;99.90
1992;DHT22;997;48.448;8.924;2022-11-23T04:21:55;5.10;99.90
1992;DHT22;997;48.448;8.924;2022-11-23T04:24:21;5.10;99.90
1992;DHT22;997;48.448;8.924;2022-11-23T04:26:47;5.20;99.90
1992;DHT22;997;48.448;8.924;2022-11-23T04:29:13;5.20;99.90
1992;DHT22;997;48.448;8.924;2022-11-23T04:31:38;4.90;99.90
1992;DHT22;997;48.448;8.924;2022-11-23T04:34:04;4.30;99.90
1992;DHT22;997;48.448;8.924;2022-11-23T04:36:30;3.70;99.90
1992;DHT22;997;48.448;8.924;2022-11-23T04:38:55;3.40;99.90
1992;DHT22;997;48.448;8.924;2022-11-23T04:41:22;3.20;99.90
1992;DHT22;997;48.448;8.924;2022-11-23T04:43:48;3.00;99.90
1992;DHT22;997;48.448;8.924;2022-11-23T04:46:14;3.20;99.90
1992;DHT22;997;48.448;8.924;2022-11-23T04:48:40;3.20;99.90
1992;DHT22;997;48.448;8.924;2022-11-23T04:51:05;3.10;99.90
1992;DHT22;997;48.448;8.924;2022-11-23T04:53:32;3.00;99.90
1992;DHT22;997;48.448;8.924;2022-11-23T04:55:57;3.10;99.90
1992;DHT22;997;48.448;8.924;2022-11-23T04:58:23;3.20;99.90
1992;DHT22;997;48.448;8.924;2022-11-23T05:00:49;3.40;99.90
1992;DHT22;997;48.448;8.924;2022-11-23T05:03:15;3.40;99.90
1992;DHT22;997;48.448;8.924;2022-11-23T05:05:41;3.40;99.90
1992;DHT22;997;48.448;8.924;2022-11-23T05:08:07;3.50;99.90
1992;DHT22;997;48.448;8.924;2022-11-23T05:10:33;3.60;99.90
1992;DHT22;997;48.448;8.924;2022-11-23T05:12:59;3.70;99.90
1992;DHT22;997;48.448;8.924;2022-11-23T05:15:25;3.80;99.90
1992;DHT22;997;48.448;8.924;2022-11-23T05:17:51;3.90;99.90
1992;DHT22;997;48.448;8.924;2022-11-23T05:20:17;4.10;99.90
1992;DHT22;997;48.448;8.924;2022-11-23T05:22:43;4.20;99.90
1992;DHT22;997;48.448;8.924;2022-11-23T05:25:09;4.20;99.90
1992;DHT22;997;48.448;8.924;2022-11-23T05:27:35;4.30;99.90
1992;DHT22;997;48.448;8.924;2022-11-23T05:30:01;4.30;99.90
1992;DHT22;997;48.448;8.924;2022-11-23T05:32:27;4.30;99.90
1992;DHT22;997;48.448;8.924;2022-11-23T05:34:52;4.40;99.90
1992;DHT22;997;48.448;8.924;2022-11-23T05:37:18;4.40;99.90
1992;DHT22;997;48.448;8.924;2022-11-23T05:39:44;4.30;99.90
1992;DHT22;997;48.448;8.924;2022-11-23T05:42:09;4.20;99.90
1992;DHT22;997;48.448;8.924;2022-11-23T05:44:35;3.80;99.90
1992;DHT22;997;48.448;8.924;2022-11-23T05:47:01;3.60;99.90
1992;DHT22;997;48.448;8.924;2022-11-23T05:49:27;3.30;99.90
1992;DHT22;997;48.448;8.924;2022-11-23T05:51:52;3.10;99.90
1992;DHT22;997;48.448;8.924;2022-11-23T05:54:18;3.10;99.90
1992;DHT22;997;48.448;8.924;2022-11-23T05:56:44;2.90;99.90
1992;DHT22;997;48.448;8.924;2022-11-23T05:59:10;2.70;99.90
1992;DHT22;997;48.448;8.924;2022-11-23T06:01:36;2.90;99.90
1992;DHT22;997;48.448;8.924;2022-11-23T06:04:02;3.10;99.90
1992;DHT22;997;48.448;8.924;2022-11-23T06:06:28;3.10;99.90
1992;DHT22;997;48.448;8.924;2022-11-23T06:08:54;3.10;99.90
1992;DHT22;997;48.448;8.924;2022-11-23T06:11:19;3.10;99.90
1992;DHT22;997;48.448;8.924;2022-11-23T06:13:46;3.30;99.90
1992;DHT22;997;48.448;8.924;2022-11-23T06:16:12;3.50;99.90
1992;DHT22;997;48.448;8.924;2022-11-23T06:18:38;3.70;99.90
1992;DHT22;997;48.448;8.924;2022-11-23T06:21:04;3.80;99.90
1992;DHT22;997;48.448;8.924;2022-11-23T06:23:29;3.80;99.90
1992;DHT22;997;48.448;8.924;2022-11-23T06:25:59;3.80;99.90
1992;DHT22;997;48.448;8.924;2022-11-23T06:28:25;3.70;99.90
1992;DHT22;997;48.448;8.924;2022-11-23T06:30:51;3.70;99.90
1992;DHT22;997;48.448;8.924;2022-11-23T06:33:17;3.60;99.90
1992;DHT22;997;48.448;8.924;2022-11-23T06:35:51;3.60;99.90
1992;DHT22;997;48.448;8.924;2022-11-23T06:38:17;3.60;99.90
1992;DHT22;997;48.448;8.924;2022-11-23T06:40:43;3.70;99.90
1992;DHT22;997;48.448;8.924;2022-11-23T06:43:09;3.80;99.90
1992;DHT22;997;48.448;8.924;2022-11-23T06:45:34;3.90;99.90
1992;DHT22;997;48.448;8.924;2022-11-23T06:48:00;3.90;99.90
1992;DHT22;997;48.448;8.924;2022-11-23T06:50:29;3.80;99.90
1992;DHT22;997;48.448;8.924;2022-11-23T06:52:55;3.80;99.90
1992;DHT22;997;48.448;8.924;2022-11-23T06:55:22;3.80;99.90
1992;DHT22;997;48.448;8.924;2022-11-23T06:57:48;3.80;99.90
1992;DHT22;997;48.448;8.924;2022-11-23T07:00:14;3.80;99.90
1992;DHT22;997;48.448;8.924;2022-11-23T07:02:40;3.80;99.90
1992;DHT22;997;48.448;8.924;2022-11-23T07:05:06;3.70;99.90
1992;DHT22;997;48.448;8.924;2022-11-23T07:07:32;3.70;99.90
1992;DHT22;997;48.448;8.924;2022-11-23T07:09:57;3.60;99.90
1992;DHT22;997;48.448;8.924;2022-11-23T07:12:23;3.60;99.90
1992;DHT22;997;48.448;8.924;2022-11-23T07:14:49;3.50;99.90
1992;DHT22;997;48.448;8.924;2022-11-23T07:17:15;3.50;99.90
1992;DHT22;997;48.448;8.924;2022-11-23T07:19:40;3.40;99.90
1992;DHT22;997;48.448;8.924;2022-11-23T07:22:06;3.40;99.90
1992;DHT22;997;48.448;8.924;2022-11-23T07:24:32;3.20;99.90
1992;DHT22;997;48.448;8.924;2022-11-23T07:26:57;3.20;99.90
1992;DHT22;997;48.448;8.924;2022-11-23T07:29:23;3.20;99.90
1992;DHT22;997;48.448;8.924;2022-11-23T07:31:49;3.10;99.90
1992;DHT22;997;48.448;8.924;2022-11-23T07:34:15;3.10;99.90
1992;DHT22;997;48.448;8.924;2022-11-23T07:36:40;3.20;99.90
1992;DHT22;997;48.448;8.924;2022-11-23T07:39:06;3.10;99.90
1992;DHT22;997;48.448;8.924;2022-11-23T07:41:32;2.80;99.90
1992;DHT22;997;48.448;8.924;2022-11-23T07:43:58;2.60;99.90
1992;DHT22;997;48.448;8.924;2022-11-23T07:46:24;2.60;99.90
1992;DHT22;997;48.448;8.924;2022-11-23T07:48:50;2.70;99.90
1992;DHT22;997;48.448;8.924;2022-11-23T07:51:18;2.90;99.90
1992;DHT22;997;48.448;8.924;2022-11-23T07:53:45;2.90;99.90
1992;DHT22;997;48.448;8.924;2022-11-23T07:56:10;2.90;99.90
1992;DHT22;997;48.448;8.924;2022-11-23T07:58:36;3.00;99.90
1992;DHT22;997;48.448;8.924;2022-11-23T08:01:02;3.10;99.90
1992;DHT22;997;48.448;8.924;2022-11-23T08:03:28;3.30;99.90
1992;DHT22;997;48.448;8.924;2022-11-23T08:05:53;3.40;99.90
1992;DHT22;997;48.448;8.924;2022-11-23T08:08:19;3.40;99.90
1992;DHT22;997;48.448;8.924;2022-11-23T08:10:45;3.40;99.90
1992;DHT22;997;48.448;8.924;2022-11-23T08:13:10;3.40;99.90
1992;DHT22;997;48.448;8.924;2022-11-23T08:15:36;3.50;99.90
1992;DHT22;997;48.448;8.924;2022-11-23T08:18:03;3.60;99.90
1992;DHT22;997;48.448;8.924;2022-11-23T08:20:30;3.60;99.90
1992;DHT22;997;48.448;8.924;2022-11-23T08:22:56;3.70;99.90
1992;DHT22;997;48.448;8.924;2022-11-23T08:25:23;3.80;99.90
1992;DHT22;997;48.448;8.924;2022-11-23T08:27:57;3.90;99.90
1992;DHT22;997;48.448;8.924;2022-11-23T08:30:23;3.90;99.90
1992;DHT22;997;48.448;8.924;2022-11-23T08:32:49;4.00;99.90
1992;DHT22;997;48.448;8.924;2022-11-23T08:35:15;3.90;99.90
1992;DHT22;997;48.448;8.924;2022-11-23T08:37:41;4.00;99.90
1992;DHT22;997;48.448;8.924;2022-11-23T08:40:07;4.10;99.90
1992;DHT22;997;48.448;8.924;2022-11-23T08:42:32;4.20;99.90
1992;DHT22;997;48.448;8.924;2022-11-23T08:44:58;4.20;99.90
1992;DHT22;997;48.448;8.924;2022-11-23T08:47:24;4.30;99.90
1992;DHT22;997;48.448;8.924;2022-11-23T08:49:51;4.40;99.90
1992;DHT22;997;48.448;8.924;2022-11-23T08:52:16;4.60;99.90
1992;DHT22;997;48.448;8.924;2022-11-23T08:54:42;4.60;99.90
1992;DHT22;997;48.448;8.924;2022-11-23T08:57:08;4.70;99.90
1992;DHT22;997;48.448;8.924;2022-11-23T08:59:33;4.80;99.90
1992;DHT22;997;48.448;8.924;2022-11-23T09:01:59;5.00;99.90
1992;DHT22;997;48.448;8.924;2022-11-23T09:04:25;5.10;99.90
1992;DHT22;997;48.448;8.924;2022-11-23T09:06:52;5.20;99.90
1992;DHT22;997;48.448;8.924;2022-11-23T09:09:18;5.20;99.90
1992;DHT22;997;48.448;8.924;2022-11-23T09:11:44;5.20;99.90
1992;DHT22;997;48.448;8.924;2022-11-23T09:14:09;5.30;99.90
1992;DHT22;997;48.448;8.924;2022-11-23T09:16:35;5.40;99.90
1992;DHT22;997;48.448;8.924;2022-11-23T09:19:01;5.40;99.90
1992;DHT22;997;48.448;8.924;2022-11-23T09:21:26;5.50;99.90
1992;DHT22;997;48.448;8.924;2022-11-23T09:23:57;5.70;99.90
1992;DHT22;997;48.448;8.924;2022-11-23T09:26:23;5.80;99.90
1992;DHT22;997;48.448;8.924;2022-11-23T09:28:49;5.80;99.90
1992;DHT22;997;48.448;8.924;2022-11-23T09:31:15;5.90;99.90
1992;DHT22;997;48.448;8.924;2022-11-23T09:33:41;6.00;99.90
1992;DHT22;997;48.448;8.924;2022-11-23T09:36:07;6.20;99.90
1992;DHT22;997;48.448;8.924;2022-11-23T09:38:33;6.30;99.90
1992;DHT22;997;48.448;8.924;2022-11-23T09:44:07;6.50;99.90
1992;DHT22;997;48.448;8.924;2022-11-23T09:52:41;6.80;99.90
1992;DHT22;997;48.448;8.924;2022-11-23T09:58:03;7.20;99.90
1992;DHT22;997;48.448;8.924;2022-11-23T10:00:44;7.30;99.90
1992;DHT22;997;48.448;8.924;2022-11-23T10:03:15;7.30;99.90
1992;DHT22;997;48.448;8.924;2022-11-23T10:05:49;7.20;99.90
1992;DHT22;997;48.448;8.924;2022-11-23T10:08:24;7.20;99.90
1992;DHT22;997;48.448;8.924;2022-11-23T10:22:58;7.40;99.90
1992;DHT22;997;48.448;8.924;2022-11-23T10:25:25;7.40;99.90
1992;DHT22;997;48.448;8.924;2022-11-23T10:27:56;7.40;99.90
1992;DHT22;997;48.448;8.924;2022-11-23T10:30:23;7.60;99.90
1992;DHT22;997;48.448;8.924;2022-11-23T10:35:29;7.80;99.90
1992;DHT22;997;48.448;8.924;2022-11-23T10:38:14;8.00;99.90
1992;DHT22;997;48.448;8.924;2022-11-23T10:43:22;8.00;99.90
1992;DHT22;997;48.448;8.924;2022-11-23T10:45:49;7.90;99.90
1992;DHT22;997;48.448;8.924;2022-11-23T10:48:33;8.10;99.90
1992;DHT22;997;48.448;8.924;2022-11-23T10:51:27;8.20;99.90
1992;DHT22;997;48.448;8.924;2022-11-23T10:54:00;8.20;99.90
1992;DHT22;997;48.448;8.924;2022-11-23T10:56:27;7.90;99.90
1992;DHT22;997;48.448;8.924;2022-11-23T10:58:53;8.00;99.90
1992;DHT22;997;48.448;8.924;2022-11-23T11:01:21;8.20;99.90
1992;DHT22;997;48.448;8.924;2022-11-23T11:03:52;8.30;99.90
1992;DHT22;997;48.448;8.924;2022-11-23T11:06:26;8.30;99.90
1992;DHT22;997;48.448;8.924;2022-11-23T11:08:55;8.30;99.90
1992;DHT22;997;48.448;8.924;2022-11-23T11:11:24;8.30;99.90
1992;DHT22;997;48.448;8.924;2022-11-23T11:13:50;8.40;99.90
1992;DHT22;997;48.448;8.924;2022-11-23T11:16:29;8.60;99.90
1992;DHT22;997;48.448;8.924;2022-11-23T11:18:58;8.80;99.90
1992;DHT22;997;48.448;8.924;2022-11-23T11:21:35;8.90;99.90
1992;DHT22;997;48.448;8.924;2022-11-23T11:24:13;8.90;99.90
1992;DHT22;997;48.448;8.924;2022-11-23T11:26:49;9.00;99.90
1992;DHT22;997;48.448;8.924;2022-11-23T11:29:37;9.10;99.90
1992;DHT22;997;48.448;8.924;2022-11-23T11:35:14;9.10;99.90
1992;DHT22;997;48.448;8.924;2022-11-23T11:37:46;9.00;99.90
1992;DHT22;997;48.448;8.924;2022-11-23T11:45:31;9.10;99.90
1992;DHT22;997;48.448;8.924;2022-11-23T11:48:12;9.20;99.90
1992;DHT22;997;48.448;8.924;2022-11-23T11:51:02;9.30;99.90
1992;DHT22;997;48.448;8.924;2022-11-23T11:53:38;9.40;99.90
1992;DHT22;997;48.448;8.924;2022-11-23T12:04:23;9.20;99.90
1992;DHT22;997;48.448;8.924;2022-11-23T12:09:29;9.30;99.90
1992;DHT22;997;48.448;8.924;2022-11-23T12:11:57;9.40;99.90
1992;DHT22;997;48.448;8.924;2022-11-23T12:14:23;9.50;99.90
1992;DHT22;997;48.448;8.924;2022-11-23T12:17:00;9.50;99.90
1992;DHT22;997;48.448;8.924;2022-11-23T12:30:29;9.60;99.90
1992;DHT22;997;48.448;8.924;2022-11-23T12:38:54;9.70;99.90
1992;DHT22;997;48.448;8.924;2022-11-23T12:41:55;9.60;99.90
1992;DHT22;997;48.448;8.924;2022-11-23T12:55:33;9.70;99.90
1992;DHT22;997;48.448;8.924;2022-11-23T12:58:20;9.70;99.90
1992;DHT22;997;48.448;8.924;2022-11-23T13:17:58;9.80;99.90
1992;DHT22;997;48.448;8.924;2022-11-23T13:23:22;9.80;99.90
1992;DHT22;997;48.448;8.924;2022-11-23T13:28:37;9.90;99.90
1992;DHT22;997;48.448;8.924;2022-11-23T13:33:46;9.90;99.90
1992;DHT22;997;48.448;8.924;2022-11-23T13:36:34;9.80;99.90
1992;DHT22;997;48.448;8.924;2022-11-23T13:39:04;10.00;99.90
1992;DHT22;997;48.448;8.924;2022-11-23T13:46:36;10.00;99.90
1992;DHT22;997;48.448;8.924;2022-11-23T13:49:02;10.00;99.90
1992;DHT22;997;48.448;8.924;2022-11-23T13:51:33;10.10;99.90
1992;DHT22;997;48.448;8.924;2022-11-23T13:54:02;10.10;99.90
1992;DHT22;997;48.448;8.924;2022-11-23T13:56:34;10.20;99.90
1992;DHT22;997;48.448;8.924;2022-11-23T14:04:39;10.10;99.90
1992;DHT22;997;48.448;8.924;2022-11-23T14:07:39;10.10;99.90
1992;DHT22;997;48.448;8.924;2022-11-23T14:10:21;10.00;99.90
1992;DHT22;997;48.448;8.924;2022-11-23T14:13:13;10.10;99.90
1992;DHT22;997;48.448;8.924;2022-11-23T14:15:44;10.20;99.90
1992;DHT22;997;48.448;8.924;2022-11-23T14:21:39;10.00;99.90
1992;DHT22;997;48.448;8.924;2022-11-23T14:27:08;9.90;99.90
1992;DHT22;997;48.448;8.924;2022-11-23T14:42:55;9.50;99.90
1992;DHT22;997;48.448;8.924;2022-11-23T14:45:23;9.50;99.90
1992;DHT22;997;48.448;8.924;2022-11-23T14:47:54;9.50;99.90
1992;DHT22;997;48.448;8.924;2022-11-23T14:52:47;9.60;99.90
1992;DHT22;997;48.448;8.924;2022-11-23T14:55:22;9.50;99.90
1992;DHT22;997;48.448;8.924;2022-11-23T14:57:51;9.50;99.90
1992;DHT22;997;48.448;8.924;2022-11-23T15:02:55;9.70;99.90
1992;DHT22;997;48.448;8.924;2022-11-23T15:05:31;9.80;99.90
1992;DHT22;997;48.448;8.924;2022-11-23T15:13:24;9.90;99.90
1992;DHT22;997;48.448;8.924;2022-11-23T15:15:52;9.80;99.90
1992;DHT22;997;48.448;8.924;2022-11-23T15:18:35;9.50;99.90
1992;DHT22;997;48.448;8.924;2022-11-23T15:21:24;9.20;99.90
1992;DHT22;997;48.448;8.924;2022-11-23T15:23:55;9.10;99.90
1992;DHT22;997;48.448;8.924;2022-11-23T15:28:49;9.00;99.90
1992;DHT22;997;48.448;8.924;2022-11-23T15:31:29;9.00;99.90
1992;DHT22;997;48.448;8.924;2022-11-23T15:33:58;8.90;99.90
1992;DHT22;997;48.448;8.924;2022-11-23T15:36:36;8.90;99.90
1992;DHT22;997;48.448;8.924;2022-11-23T15:39:03;8.80;99.90
1992;DHT22;997;48.448;8.924;2022-11-23T15:41:39;8.80;99.90
1992;DHT22;997;48.448;8.924;2022-11-23T15:44:16;8.80;99.90
1992;DHT22;997;48.448;8.924;2022-11-23T15:46:46;8.80;99.90
1992;DHT22;997;48.448;8.924;2022-11-23T15:49:14;8.80;99.90
1992;DHT22;997;48.448;8.924;2022-11-23T15:51:41;8.80;99.90
1992;DHT22;997;48.448;8.924;2022-11-23T15:56:44;8.90;99.90
1992;DHT22;997;48.448;8.924;2022-11-23T15:59:34;9.00;99.90
1992;DHT22;997;48.448;8.924;2022-11-23T16:02:04;9.00;99.90
1992;DHT22;997;48.448;8.924;2022-11-23T16:04:35;9.20;99.90
1992;DHT22;997;48.448;8.924;2022-11-23T16:07:22;9.20;99.90
1992;DHT22;997;48.448;8.924;2022-11-23T16:10:26;9.20;99.90
1992;DHT22;997;48.448;8.924;2022-11-23T16:15:36;9.20;99.90
1992;DHT22;997;48.448;8.924;2022-11-23T16:20:50;9.10;99.90
1992;DHT22;997;48.448;8.924;2022-11-23T16:23:49;9.10;99.90
1992;DHT22;997;48.448;8.924;2022-11-23T16:26:17;9.00;99.90
1992;DHT22;997;48.448;8.924;2022-11-23T16:28:51;8.90;99.90
1992;DHT22;997;48.448;8.924;2022-11-23T16:31:36;8.70;99.90
1992;DHT22;997;48.448;8.924;2022-11-23T16:34:08;8.40;99.90
1992;DHT22;997;48.448;8.924;2022-11-23T16:36:34;8.40;99.90
1992;DHT22;997;48.448;8.924;2022-11-23T16:39:02;8.40;99.90
1992;DHT22;997;48.448;8.924;2022-11-23T16:41:28;8.20;99.90
1992;DHT22;997;48.448;8.924;2022-11-23T16:43:53;8.20;99.90
1992;DHT22;997;48.448;8.924;2022-11-23T16:46:19;8.10;99.90
1992;DHT22;997;48.448;8.924;2022-11-23T16:48:45;8.10;99.90
1992;DHT22;997;48.448;8.924;2022-11-23T16:51:12;8.20;99.90
1992;DHT22;997;48.448;8.924;2022-11-23T16:53:43;8.20;99.90
1992;DHT22;997;48.448;8.924;2022-11-23T16:56:17;8.20;99.90
1992;DHT22;997;48.448;8.924;2022-11-23T16:58:42;8.10;99.90
1992;DHT22;997;48.448;8.924;2022-11-23T17:01:17;8.10;99.90
1992;DHT22;997;48.448;8.924;2022-11-23T17:03:44;7.70;99.90
1992;DHT22;997;48.448;8.924;2022-11-23T17:06:14;7.60;99.90
1992;DHT22;997;48.448;8.924;2022-11-23T17:08:42;7.40;99.90
1992;DHT22;997;48.448;8.924;2022-11-23T17:11:29;7.30;99.90
1992;DHT22;997;48.448;8.924;2022-11-23T17:13:54;7.30;99.90
1992;DHT22;997;48.448;8.924;2022-11-23T17:16:23;7.20;99.90
1992;DHT22;997;48.448;8.924;2022-11-23T17:18:50;7.10;99.90
1992;DHT22;997;48.448;8.924;2022-11-23T17:21:16;7.20;99.90
1992;DHT22;997;48.448;8.924;2022-11-23T17:23:41;7.20;99.90
1992;DHT22;997;48.448;8.924;2022-11-23T17:26:33;7.10;99.90
1992;DHT22;997;48.448;8.924;2022-11-23T17:29:02;7.10;99.90
1992;DHT22;997;48.448;8.924;2022-11-23T17:31:29;7.00;99.90
1992;DHT22;997;48.448;8.924;2022-11-23T17:33:54;7.00;99.90
1992;DHT22;997;48.448;8.924;2022-11-23T17:36:20;6.90;99.90
1992;DHT22;997;48.448;8.924;2022-11-23T17:38:46;6.90;99.90
1992;DHT22;997;48.448;8.924;2022-11-23T17:41:14;6.90;99.90
1992;DHT22;997;48.448;8.924;2022-11-23T17:43:40;6.80;99.90
1992;DHT22;997;48.448;8.924;2022-11-23T17:46:15;6.70;99.90
1992;DHT22;997;48.448;8.924;2022-11-23T17:48:43;6.70;99.90
1992;DHT22;997;48.448;8.924;2022-11-23T17:51:10;6.70;99.90
1992;DHT22;997;48.448;8.924;2022-11-23T17:53:37;6.70;99.90
1992;DHT22;997;48.448;8.924;2022-11-23T17:56:02;6.60;99.90
1992;DHT22;997;48.448;8.924;2022-11-23T17:58:28;6.60;99.90
1992;DHT22;997;48.448;8.924;2022-11-23T18:00:54;6.50;99.90
1992;DHT22;997;48.448;8.924;2022-11-23T18:03:19;6.50;99.90
1992;DHT22;997;48.448;8.924;2022-11-23T18:05:45;6.50;99.90
1992;DHT22;997;48.448;8.924;2022-11-23T18:08:11;6.50;99.90
1992;DHT22;997;48.448;8.924;2022-11-23T18:10:36;6.50;99.90
1992;DHT22;997;48.448;8.924;2022-11-23T18:13:02;6.50;99.90
1992;DHT22;997;48.448;8.924;2022-11-23T18:15:28;6.50;99.90
1992;DHT22;997;48.448;8.924;2022-11-23T18:17:54;6.50;99.90
1992;DHT22;997;48.448;8.924;2022-11-23T18:20:20;6.50;99.90
1992;DHT22;997;48.448;8.924;2022-11-23T18:22:46;6.50;99.90
1992;DHT22;997;48.448;8.924;2022-11-23T18:25:12;6.50;99.90
1992;DHT22;997;48.448;8.924;2022-11-23T18:27:37;6.40;99.90
1992;DHT22;997;48.448;8.924;2022-11-23T18:30:03;6.50;99.90
1992;DHT22;997;48.448;8.924;2022-11-23T18:32:29;6.40;99.90
1992;DHT22;997;48.448;8.924;2022-11-23T18:34:55;6.50;99.90
1992;DHT22;997;48.448;8.924;2022-11-23T18:37:21;6.40;99.90
1992;DHT22;997;48.448;8.924;2022-11-23T18:39:47;6.40;99.90
1992;DHT22;997;48.448;8.924;2022-11-23T18:42:12;6.40;99.90
1992;DHT22;997;48.448;8.924;2022-11-23T18:44:38;6.40;99.90
1992;DHT22;997;48.448;8.924;2022-11-23T18:47:04;6.40;99.90
1992;DHT22;997;48.448;8.924;2022-11-23T18:49:30;6.40;99.90
1992;DHT22;997;48.448;8.924;2022-11-23T18:51:55;6.40;99.90
1992;DHT22;997;48.448;8.924;2022-11-23T18:54:21;6.40;99.90
1992;DHT22;997;48.448;8.924;2022-11-23T18:56:47;6.40;99.90
1992;DHT22;997;48.448;8.924;2022-11-23T18:59:12;6.30;99.90
1992;DHT22;997;48.448;8.924;2022-11-23T19:01:38;6.30;99.90
1992;DHT22;997;48.448;8.924;2022-11-23T19:04:04;6.40;99.90
1992;DHT22;997;48.448;8.924;2022-11-23T19:06:30;6.30;99.90
1992;DHT22;997;48.448;8.924;2022-11-23T19:08:57;6.40;99.90
1992;DHT22;997;48.448;8.924;2022-11-23T19:11:25;6.40;99.90
1992;DHT22;997;48.448;8.924;2022-11-23T19:13:54;6.30;99.90
1992;DHT22;997;48.448;8.924;2022-11-23T19:16:28;6.30;99.90
1992;DHT22;997;48.448;8.924;2022-11-23T19:18:55;6.30;99.90
1992;DHT22;997;48.448;8.924;2022-11-23T19:21:23;6.40;99.90
1992;DHT22;997;48.448;8.924;2022-11-23T19:23:51;6.40;99.90
1992;DHT22;997;48.448;8.924;2022-11-23T19:26:17;6.40;99.90
1992;DHT22;997;48.448;8.924;2022-11-23T19:28:44;6.40;99.90
1992;DHT22;997;48.448;8.924;2022-11-23T19:31:15;6.50;99.90
1992;DHT22;997;48.448;8.924;2022-11-23T19:33:43;6.50;99.90
1992;DHT22;997;48.448;8.924;2022-11-23T19:36:11;6.50;99.90
1992;DHT22;997;48.448;8.924;2022-11-23T19:38:37;6.50;99.90
1992;DHT22;997;48.448;8.924;2022-11-23T19:41:03;6.50;99.90
1992;DHT22;997;48.448;8.924;2022-11-23T19:43:29;6.50;99.90
1992;DHT22;997;48.448;8.924;2022-11-23T19:46:00;6.50;99.90
1992;DHT22;997;48.448;8.924;2022-11-23T19:48:27;6.60;99.90
1992;DHT22;997;48.448;8.924;2022-11-23T19:50:59;6.60;99.90
1992;DHT22;997;48.448;8.924;2022-11-23T19:53:28;6.70;99.90
1992;DHT22;997;48.448;8.924;2022-11-23T19:56:24;6.70;99.90
1992;DHT22;997;48.448;8.924;2022-11-23T19:58:57;6.70;99.90
1992;DHT22;997;48.448;8.924;2022-11-23T20:01:26;6.70;99.90
1992;DHT22;997;48.448;8.924;2022-11-23T20:03:54;6.70;99.90
1992;DHT22;997;48.448;8.924;2022-11-23T20:06:22;6.80;99.90
1992;DHT22;997;48.448;8.924;2022-11-23T20:08:54;6.80;99.90
1992;DHT22;997;48.448;8.924;2022-11-23T20:11:21;6.80;99.90
1992;DHT22;997;48.448;8.924;2022-11-23T20:13:47;6.90;99.90
1992;DHT22;997;48.448;8.924;2022-11-23T20:16:15;7.00;99.90
1992;DHT22;997;48.448;8.924;2022-11-23T20:18:42;7.10;99.90
1992;DHT22;997;48.448;8.924;2022-11-23T20:21:12;7.10;99.90
1992;DHT22;997;48.448;8.924;2022-11-23T20:23:39;7.20;99.90
1992;DHT22;997;48.448;8.924;2022-11-23T20:26:05;7.20;99.90
1992;DHT22;997;48.448;8.924;2022-11-23T20:28:31;7.20;99.90
1992;DHT22;997;48.448;8.924;2022-11-23T20:31:02;7.20;99.90
1992;DHT22;997;48.448;8.924;2022-11-23T20:33:28;7.10;99.90
1992;DHT22;997;48.448;8.924;2022-11-23T20:35:54;7.10;99.90
1992;DHT22;997;48.448;8.924;2022-11-23T20:38:35;7.10;99.90
1992;DHT22;997;48.448;8.924;2022-11-23T20:41:10;7.10;99.90
1992;DHT22;997;48.448;8.924;2022-11-23T20:43:36;7.20;99.90
1992;DHT22;997;48.448;8.924;2022-11-23T20:46:01;7.20;99.90
1992;DHT22;997;48.448;8.924;2022-11-23T20:48:27;7.10;99.90
1992;DHT22;997;48.448;8.924;2022-11-23T20:50:53;7.20;99.90
1992;DHT22;997;48.448;8.924;2022-11-23T20:53:19;7.20;99.90
1992;DHT22;997;48.448;8.924;2022-11-23T20:55:44;7.30;99.90
1992;DHT22;997;48.448;8.924;2022-11-23T20:58:10;7.40;99.90
1992;DHT22;997;48.448;8.924;2022-11-23T21:00:37;7.40;99.90
1992;DHT22;997;48.448;8.924;2022-11-23T21:03:02;7.30;99.90
1992;DHT22;997;48.448;8.924;2022-11-23T21:05:28;7.30;99.90
1992;DHT22;997;48.448;8.924;2022-11-23T21:07:54;7.40;99.90
1992;DHT22;997;48.448;8.924;2022-11-23T21:10:19;7.60;99.90
1992;DHT22;997;48.448;8.924;2022-11-23T21:13:13;7.80;99.90
1992;DHT22;997;48.448;8.924;2022-11-23T21:16:03;7.90;99.90
1992;DHT22;997;48.448;8.924;2022-11-23T21:18:29;8.10;99.90
1992;DHT22;997;48.448;8.924;2022-11-23T21:20:55;8.20;99.90
1992;DHT22;997;48.448;8.924;2022-11-23T21:23:20;8.20;99.90
1992;DHT22;997;48.448;8.924;2022-11-23T21:25:46;8.30;99.90
1992;DHT22;997;48.448;8.924;2022-11-23T21:28:12;8.30;99.90
1992;DHT22;997;48.448;8.924;2022-11-23T21:30:37;8.10;99.90
1992;DHT22;997;48.448;8.924;2022-11-23T21:33:03;8.00;99.90
1992;DHT22;997;48.448;8.924;2022-11-23T21:35:28;8.00;99.90
1992;DHT22;997;48.448;8.924;2022-11-23T21:37:54;7.80;99.90
1992;DHT22;997;48.448;8.924;2022-11-23T21:40:20;7.80;99.90
1992;DHT22;997;48.448;8.924;2022-11-23T21:42:46;7.70;99.90
1992;DHT22;997;48.448;8.924;2022-11-23T21:45:12;7.70;99.90
1992;DHT22;997;48.448;8.924;2022-11-23T21:47:37;7.70;99.90
1992;DHT22;997;48.448;8.924;2022-11-23T21:50:03;7.70;99.90
1992;DHT22;997;48.448;8.924;2022-11-23T21:52:29;7.70;99.90
1992;DHT22;997;48.448;8.924;2022-11-23T21:54:55;7.60;99.90
1992;DHT22;997;48.448;8.924;2022-11-23T21:57:20;7.70;99.90
1992;DHT22;997;48.448;8.924;2022-11-23T21:59:46;7.80;99.90
1992;DHT22;997;48.448;8.924;2022-11-23T22:02:12;7.80;99.90
1992;DHT22;997;48.448;8.924;2022-11-23T22:04:37;7.80;99.90
1992;DHT22;997;48.448;8.924;2022-11-23T22:07:03;7.80;99.90
1992;DHT22;997;48.448;8.924;2022-11-23T22:09:28;7.70;99.90
1992;DHT22;997;48.448;8.924;2022-11-23T22:11:57;7.70;99.90
1992;DHT22;997;48.448;8.924;2022-11-23T22:14:22;7.70;99.90
1992;DHT22;997;48.448;8.924;2022-11-23T22:16:48;7.60;99.90
1992;DHT22;997;48.448;8.924;2022-11-23T22:19:15;7.60;99.90
1992;DHT22;997;48.448;8.924;2022-11-23T22:21:42;7.50;99.90
1992;DHT22;997;48.448;8.924;2022-11-23T22:24:13;7.30;99.90
1992;DHT22;997;48.448;8.924;2022-11-23T22:26:39;7.30;99.90
1992;DHT22;997;48.448;8.924;2022-11-23T22:29:05;7.20;99.90
